Providence, Rhode Island
Traffic Map
Current Weather Conditions
Providence, Rhode Island
Overcast
Overcast
39°
Feels Like: 34°
Wind Chill: 34° Ceiling: 4100
Heat Index: 39° Visibility: 10mi
Dew Point: 26° Wind: 7mph
Humidity: 60% Direction: 110° (ESE)
Pressure: 30.45in Gusts: 0mph
Raw Report DataKPVD 262251Z 11006KT 10SM OVC041 04/M03 A3045 RMK AO2 SLP312 T00391033
Traffic Incident Summary
Active as of:
Severity:
Category:
InformationThere was an issue retrieving the traffic information for this location. Please try a different location or try again shortly.
Advertisements
Track Severe Weather on mobile